Terminal Aerodrome Forecast
Issued by NWS

Home | Current Version | Previous Version | Text Only | Print | Product List | Glossary Off
Versions: 1 2 3 4 5 6 7 8 9 10 11 12 13 14 15 16 17 18 19 20 21 22 23 24 25 26 27 28 29 30 31 32 33 34 35 36 37 38 39 40 41 42 43 44 45

000
FTUS43 KLOT 131300 AAB
TAFMDW
TAF AMD
KMDW 131357Z 1314/1412 29008KT P6SM SCT009 BKN250
      TEMPO 1314/1315 BKN009
     FM131500 29008KT P6SM SCT015 BKN250
     FM131800 28010G17KT P6SM SCT045 SCT250
     FM132200 30010G16KT P6SM BKN050
     FM140300 26006KT P6SM SCT050 BKN080
     FM140900 29005KT P6SM BKN060=

USA.gov is the U.S. government's official web portal to all federal, state and local government web resources and services.